sensor_id;sensor_type;location;lat;lon;timestamp;P1;durP1;ratioP1;P2;durP2;ratioP2
52023;SDS011;38038;45.922;13.604;2023-02-20T00:00:00;48.63;;;43.43;;
52023;SDS011;38038;45.922;13.604;2023-02-20T00:02:26;49.90;;;45.07;;
52023;SDS011;38038;45.922;13.604;2023-02-20T00:04:51;50.93;;;45.20;;
52023;SDS011;38038;45.922;13.604;2023-02-20T00:07:17;51.73;;;46.73;;
52023;SDS011;38038;45.922;13.604;2023-02-20T00:09:43;44.80;;;40.40;;
52023;SDS011;38038;45.922;13.604;2023-02-20T00:12:09;48.53;;;43.43;;
52023;SDS011;38038;45.922;13.604;2023-02-20T00:14:34;44.13;;;39.53;;
52023;SDS011;38038;45.922;13.604;2023-02-20T00:17:00;44.30;;;40.07;;
52023;SDS011;38038;45.922;13.604;2023-02-20T00:19:26;42.50;;;38.27;;
52023;SDS011;38038;45.922;13.604;2023-02-20T00:21:51;40.87;;;36.70;;
52023;SDS011;38038;45.922;13.604;2023-02-20T00:24:18;42.93;;;38.77;;
52023;SDS011;38038;45.922;13.604;2023-02-20T00:26:48;42.87;;;38.47;;
52023;SDS011;38038;45.922;13.604;2023-02-20T00:29:16;46.30;;;41.63;;
52023;SDS011;38038;45.922;13.604;2023-02-20T00:31:48;48.13;;;43.53;;
52023;SDS011;38038;45.922;13.604;2023-02-20T00:34:18;51.70;;;46.90;;
52023;SDS011;38038;45.922;13.604;2023-02-20T00:36:45;51.27;;;46.17;;
52023;SDS011;38038;45.922;13.604;2023-02-20T00:39:11;51.30;;;46.10;;
52023;SDS011;38038;45.922;13.604;2023-02-20T00:41:36;52.50;;;47.10;;
52023;SDS011;38038;45.922;13.604;2023-02-20T00:44:02;51.63;;;46.70;;
52023;SDS011;38038;45.922;13.604;2023-02-20T00:46:28;90.67;;;82.87;;
52023;SDS011;38038;45.922;13.604;2023-02-20T00:48:54;54.80;;;49.47;;
52023;SDS011;38038;45.922;13.604;2023-02-20T00:51:19;54.40;;;48.93;;
52023;SDS011;38038;45.922;13.604;2023-02-20T00:53:45;48.03;;;42.80;;
52023;SDS011;38038;45.922;13.604;2023-02-20T00:56:11;45.50;;;40.90;;
52023;SDS011;38038;45.922;13.604;2023-02-20T00:58:36;48.83;;;43.67;;
52023;SDS011;38038;45.922;13.604;2023-02-20T01:01:02;45.83;;;41.13;;
52023;SDS011;38038;45.922;13.604;2023-02-20T01:03:28;46.67;;;41.63;;
52023;SDS011;38038;45.922;13.604;2023-02-20T01:05:53;45.23;;;40.83;;
52023;SDS011;38038;45.922;13.604;2023-02-20T01:08:19;43.07;;;38.50;;
52023;SDS011;38038;45.922;13.604;2023-02-20T01:10:45;45.23;;;40.73;;
52023;SDS011;38038;45.922;13.604;2023-02-20T01:13:10;48.17;;;43.43;;
52023;SDS011;38038;45.922;13.604;2023-02-20T01:15:36;49.97;;;45.10;;
52023;SDS011;38038;45.922;13.604;2023-02-20T01:18:02;45.40;;;40.87;;
52023;SDS011;38038;45.922;13.604;2023-02-20T01:20:30;45.47;;;40.63;;
52023;SDS011;38038;45.922;13.604;2023-02-20T01:22:59;49.23;;;44.13;;
52023;SDS011;38038;45.922;13.604;2023-02-20T01:25:34;47.30;;;42.30;;
52023;SDS011;38038;45.922;13.604;2023-02-20T01:28:01;46.40;;;41.97;;
52023;SDS011;38038;45.922;13.604;2023-02-20T01:30:27;44.23;;;39.87;;
52023;SDS011;38038;45.922;13.604;2023-02-20T01:32:52;47.43;;;42.73;;
52023;SDS011;38038;45.922;13.604;2023-02-20T01:35:18;49.30;;;44.00;;
52023;SDS011;38038;45.922;13.604;2023-02-20T01:37:44;43.10;;;38.63;;
52023;SDS011;38038;45.922;13.604;2023-02-20T01:40:14;44.23;;;39.93;;
52023;SDS011;38038;45.922;13.604;2023-02-20T01:42:45;40.83;;;36.73;;
52023;SDS011;38038;45.922;13.604;2023-02-20T01:47:46;50.77;;;45.77;;
52023;SDS011;38038;45.922;13.604;2023-02-20T01:50:13;49.23;;;44.73;;
52023;SDS011;38038;45.922;13.604;2023-02-20T01:52:42;50.50;;;45.67;;
52023;SDS011;38038;45.922;13.604;2023-02-20T01:55:14;52.07;;;47.00;;
52023;SDS011;38038;45.922;13.604;2023-02-20T01:57:55;50.20;;;45.37;;
52023;SDS011;38038;45.922;13.604;2023-02-20T02:00:58;45.60;;;41.00;;
52023;SDS011;38038;45.922;13.604;2023-02-20T02:03:25;48.80;;;44.03;;
52023;SDS011;38038;45.922;13.604;2023-02-20T02:05:58;47.13;;;42.60;;
52023;SDS011;38038;45.922;13.604;2023-02-20T02:08:26;44.17;;;39.90;;
52023;SDS011;38038;45.922;13.604;2023-02-20T02:13:26;42.23;;;37.80;;
52023;SDS011;38038;45.922;13.604;2023-02-20T02:15:52;44.03;;;39.70;;
52023;SDS011;38038;45.922;13.604;2023-02-20T02:23:36;42.67;;;38.43;;
52023;SDS011;38038;45.922;13.604;2023-02-20T02:29:27;39.97;;;36.00;;
52023;SDS011;38038;45.922;13.604;2023-02-20T02:38:01;38.03;;;34.33;;
52023;SDS011;38038;45.922;13.604;2023-02-20T02:40:51;37.23;;;33.47;;
52023;SDS011;38038;45.922;13.604;2023-02-20T02:43:30;39.67;;;36.10;;
52023;SDS011;38038;45.922;13.604;2023-02-20T02:52:15;37.23;;;33.83;;
52023;SDS011;38038;45.922;13.604;2023-02-20T02:55:03;38.07;;;34.67;;
52023;SDS011;38038;45.922;13.604;2023-02-20T02:57:29;38.40;;;34.83;;
52023;SDS011;38038;45.922;13.604;2023-02-20T02:59:59;37.23;;;33.90;;
52023;SDS011;38038;45.922;13.604;2023-02-20T03:02:32;37.27;;;32.70;;
52023;SDS011;38038;45.922;13.604;2023-02-20T03:05:02;34.83;;;31.47;;
52023;SDS011;38038;45.922;13.604;2023-02-20T03:07:30;35.70;;;32.37;;
52023;SDS011;38038;45.922;13.604;2023-02-20T03:10:01;32.73;;;29.63;;
52023;SDS011;38038;45.922;13.604;2023-02-20T03:12:31;34.33;;;30.83;;
52023;SDS011;38038;45.922;13.604;2023-02-20T03:18:21;37.33;;;33.70;;
52023;SDS011;38038;45.922;13.604;2023-02-20T03:21:06;35.63;;;32.27;;
52023;SDS011;38038;45.922;13.604;2023-02-20T03:23:40;33.67;;;30.63;;
52023;SDS011;38038;45.922;13.604;2023-02-20T03:26:14;36.63;;;33.33;;
52023;SDS011;38038;45.922;13.604;2023-02-20T03:29:08;33.50;;;30.20;;
52023;SDS011;38038;45.922;13.604;2023-02-20T03:31:45;34.50;;;31.33;;
52023;SDS011;38038;45.922;13.604;2023-02-20T03:34:35;35.77;;;32.47;;
52023;SDS011;38038;45.922;13.604;2023-02-20T03:37:21;34.40;;;31.27;;
52023;SDS011;38038;45.922;13.604;2023-02-20T03:40:11;36.53;;;33.03;;
52023;SDS011;38038;45.922;13.604;2023-02-20T03:42:59;36.97;;;33.53;;
52023;SDS011;38038;45.922;13.604;2023-02-20T03:45:47;34.80;;;31.40;;
52023;SDS011;38038;45.922;13.604;2023-02-20T03:48:15;34.27;;;31.17;;
52023;SDS011;38038;45.922;13.604;2023-02-20T03:51:02;36.43;;;33.23;;
52023;SDS011;38038;45.922;13.604;2023-02-20T03:53:28;36.37;;;32.87;;
52023;SDS011;38038;45.922;13.604;2023-02-20T03:55:54;33.13;;;30.30;;
52023;SDS011;38038;45.922;13.604;2023-02-20T03:58:23;32.70;;;29.80;;
52023;SDS011;38038;45.922;13.604;2023-02-20T04:00:52;30.60;;;28.03;;
52023;SDS011;38038;45.922;13.604;2023-02-20T04:03:22;27.93;;;25.47;;
52023;SDS011;38038;45.922;13.604;2023-02-20T04:05:53;26.37;;;24.07;;
52023;SDS011;38038;45.922;13.604;2023-02-20T04:13:38;27.10;;;25.00;;
52023;SDS011;38038;45.922;13.604;2023-02-20T04:16:06;26.57;;;24.47;;
52023;SDS011;38038;45.922;13.604;2023-02-20T04:18:33;21.77;;;20.13;;
52023;SDS011;38038;45.922;13.604;2023-02-20T04:21:00;20.27;;;18.70;;
52023;SDS011;38038;45.922;13.604;2023-02-20T04:23:28;20.97;;;19.37;;
52023;SDS011;38038;45.922;13.604;2023-02-20T04:26:09;20.43;;;18.53;;
52023;SDS011;38038;45.922;13.604;2023-02-20T04:28:42;19.03;;;17.50;;
52023;SDS011;38038;45.922;13.604;2023-02-20T04:31:12;18.40;;;16.87;;
52023;SDS011;38038;45.922;13.604;2023-02-20T04:33:40;19.43;;;17.93;;
52023;SDS011;38038;45.922;13.604;2023-02-20T04:36:06;19.43;;;17.93;;
52023;SDS011;38038;45.922;13.604;2023-02-20T04:38:32;19.87;;;17.97;;
52023;SDS011;38038;45.922;13.604;2023-02-20T04:40:58;18.37;;;16.97;;
52023;SDS011;38038;45.922;13.604;2023-02-20T04:43:23;19.50;;;17.97;;
52023;SDS011;38038;45.922;13.604;2023-02-20T04:45:49;19.27;;;17.77;;
52023;SDS011;38038;45.922;13.604;2023-02-20T04:48:15;19.33;;;17.93;;
52023;SDS011;38038;45.922;13.604;2023-02-20T04:50:40;18.60;;;17.00;;
52023;SDS011;38038;45.922;13.604;2023-02-20T04:53:06;19.60;;;18.00;;
52023;SDS011;38038;45.922;13.604;2023-02-20T04:55:32;21.67;;;19.60;;
52023;SDS011;38038;45.922;13.604;2023-02-20T04:57:57;19.03;;;17.57;;
52023;SDS011;38038;45.922;13.604;2023-02-20T05:00:24;19.57;;;18.17;;
52023;SDS011;38038;45.922;13.604;2023-02-20T05:02:50;20.67;;;19.07;;
52023;SDS011;38038;45.922;13.604;2023-02-20T05:05:18;20.23;;;18.13;;
52023;SDS011;38038;45.922;13.604;2023-02-20T05:07:45;18.37;;;17.07;;
52023;SDS011;38038;45.922;13.604;2023-02-20T05:10:13;18.83;;;17.43;;
52023;SDS011;38038;45.922;13.604;2023-02-20T05:12:44;17.03;;;15.73;;
52023;SDS011;38038;45.922;13.604;2023-02-20T05:15:10;18.63;;;17.13;;
52023;SDS011;38038;45.922;13.604;2023-02-20T05:17:37;18.67;;;17.20;;
52023;SDS011;38038;45.922;13.604;2023-02-20T05:20:03;19.17;;;17.23;;
52023;SDS011;38038;45.922;13.604;2023-02-20T05:22:30;16.70;;;15.40;;
52023;SDS011;38038;45.922;13.604;2023-02-20T05:24:55;18.67;;;17.17;;
52023;SDS011;38038;45.922;13.604;2023-02-20T05:27:22;18.03;;;16.57;;
52023;SDS011;38038;45.922;13.604;2023-02-20T05:29:53;18.30;;;16.80;;
52023;SDS011;38038;45.922;13.604;2023-02-20T05:32:20;17.97;;;16.67;;
52023;SDS011;38038;45.922;13.604;2023-02-20T05:34:47;18.53;;;17.23;;
52023;SDS011;38038;45.922;13.604;2023-02-20T05:37:14;19.03;;;17.63;;
52023;SDS011;38038;45.922;13.604;2023-02-20T05:39:41;18.30;;;16.90;;
52023;SDS011;38038;45.922;13.604;2023-02-20T05:42:07;18.73;;;17.33;;
52023;SDS011;38038;45.922;13.604;2023-02-20T05:44:33;20.70;;;19.10;;
52023;SDS011;38038;45.922;13.604;2023-02-20T05:46:58;19.30;;;17.73;;
52023;SDS011;38038;45.922;13.604;2023-02-20T05:49:25;19.23;;;17.63;;
52023;SDS011;38038;45.922;13.604;2023-02-20T05:51:50;17.80;;;16.50;;
52023;SDS011;38038;45.922;13.604;2023-02-20T05:54:17;18.10;;;16.27;;
52023;SDS011;38038;45.922;13.604;2023-02-20T05:56:44;18.13;;;16.60;;
52023;SDS011;38038;45.922;13.604;2023-02-20T05:59:11;18.43;;;17.03;;
52023;SDS011;38038;45.922;13.604;2023-02-20T06:01:37;27.83;;;25.70;;
52023;SDS011;38038;45.922;13.604;2023-02-20T06:04:03;18.70;;;17.07;;
52023;SDS011;38038;45.922;13.604;2023-02-20T06:06:36;19.07;;;17.53;;
52023;SDS011;38038;45.922;13.604;2023-02-20T06:09:03;20.90;;;19.08;;
52023;SDS011;38038;45.922;13.604;2023-02-20T06:11:32;19.90;;;18.30;;
52023;SDS011;38038;45.922;13.604;2023-02-20T06:13:58;21.13;;;19.53;;
52023;SDS011;38038;45.922;13.604;2023-02-20T06:16:25;19.73;;;17.63;;
52023;SDS011;38038;45.922;13.604;2023-02-20T06:18:53;20.23;;;18.70;;
52023;SDS011;38038;45.922;13.604;2023-02-20T06:21:20;20.57;;;19.03;;
52023;SDS011;38038;45.922;13.604;2023-02-20T06:23:47;18.20;;;16.70;;
52023;SDS011;38038;45.922;13.604;2023-02-20T06:26:14;20.03;;;18.43;;
52023;SDS011;38038;45.922;13.604;2023-02-20T06:28:40;22.47;;;20.73;;
52023;SDS011;38038;45.922;13.604;2023-02-20T06:31:06;19.87;;;18.27;;
52023;SDS011;38038;45.922;13.604;2023-02-20T06:33:32;19.00;;;17.40;;
52023;SDS011;38038;45.922;13.604;2023-02-20T06:35:58;19.87;;;18.07;;
52023;SDS011;38038;45.922;13.604;2023-02-20T06:38:24;19.50;;;17.90;;
52023;SDS011;38038;45.922;13.604;2023-02-20T06:40:51;20.17;;;18.57;;
52023;SDS011;38038;45.922;13.604;2023-02-20T06:43:16;20.43;;;18.63;;
52023;SDS011;38038;45.922;13.604;2023-02-20T06:45:42;21.53;;;19.73;;
52023;SDS011;38038;45.922;13.604;2023-02-20T06:48:08;20.77;;;19.03;;
52023;SDS011;38038;45.922;13.604;2023-02-20T06:50:34;21.77;;;19.97;;
52023;SDS011;38038;45.922;13.604;2023-02-20T06:53:00;22.13;;;19.93;;
52023;SDS011;38038;45.922;13.604;2023-02-20T06:55:26;23.10;;;21.00;;
52023;SDS011;38038;45.922;13.604;2023-02-20T06:57:52;23.47;;;21.17;;
52023;SDS011;38038;45.922;13.604;2023-02-20T07:00:17;24.93;;;22.73;;
52023;SDS011;38038;45.922;13.604;2023-02-20T07:02:43;23.83;;;21.40;;
52023;SDS011;38038;45.922;13.604;2023-02-20T07:05:09;29.80;;;24.63;;
52023;SDS011;38038;45.922;13.604;2023-02-20T07:07:36;25.33;;;23.13;;
52023;SDS011;38038;45.922;13.604;2023-02-20T07:10:02;26.37;;;23.83;;
52023;SDS011;38038;45.922;13.604;2023-02-20T07:12:31;33.33;;;26.57;;
52023;SDS011;38038;45.922;13.604;2023-02-20T07:14:57;23.53;;;21.50;;
52023;SDS011;38038;45.922;13.604;2023-02-20T07:17:23;24.27;;;22.07;;
52023;SDS011;38038;45.922;13.604;2023-02-20T07:19:49;25.33;;;23.07;;
52023;SDS011;38038;45.922;13.604;2023-02-20T07:22:14;24.83;;;22.87;;
52023;SDS011;38038;45.922;13.604;2023-02-20T07:24:40;26.37;;;23.97;;
52023;SDS011;38038;45.922;13.604;2023-02-20T07:27:07;27.00;;;24.50;;
52023;SDS011;38038;45.922;13.604;2023-02-20T07:29:34;27.03;;;24.73;;
52023;SDS011;38038;45.922;13.604;2023-02-20T07:32:01;26.27;;;24.07;;
52023;SDS011;38038;45.922;13.604;2023-02-20T07:34:27;25.07;;;23.00;;
52023;SDS011;38038;45.922;13.604;2023-02-20T07:36:52;25.50;;;23.30;;
52023;SDS011;38038;45.922;13.604;2023-02-20T07:39:18;23.40;;;21.60;;
52023;SDS011;38038;45.922;13.604;2023-02-20T07:41:44;21.30;;;19.43;;
52023;SDS011;38038;45.922;13.604;2023-02-20T07:44:10;23.37;;;21.37;;
52023;SDS011;38038;45.922;13.604;2023-02-20T07:46:38;22.73;;;20.83;;
52023;SDS011;38038;45.922;13.604;2023-02-20T07:49:04;21.77;;;19.93;;
52023;SDS011;38038;45.922;13.604;2023-02-20T07:51:30;22.63;;;20.57;;
52023;SDS011;38038;45.922;13.604;2023-02-20T07:53:56;19.97;;;18.30;;
52023;SDS011;38038;45.922;13.604;2023-02-20T07:56:22;21.33;;;19.67;;
52023;SDS011;38038;45.922;13.604;2023-02-20T07:58:48;23.17;;;21.37;;
52023;SDS011;38038;45.922;13.604;2023-02-20T08:01:15;22.07;;;20.37;;
52023;SDS011;38038;45.922;13.604;2023-02-20T08:03:41;24.13;;;21.87;;
52023;SDS011;38038;45.922;13.604;2023-02-20T08:06:06;21.90;;;20.17;;
52023;SDS011;38038;45.922;13.604;2023-02-20T08:08:32;21.87;;;20.17;;
52023;SDS011;38038;45.922;13.604;2023-02-20T08:10:58;21.87;;;19.93;;
52023;SDS011;38038;45.922;13.604;2023-02-20T08:13:24;20.00;;;18.50;;
52023;SDS011;38038;45.922;13.604;2023-02-20T08:15:50;21.40;;;19.73;;
52023;SDS011;38038;45.922;13.604;2023-02-20T08:18:15;22.57;;;20.67;;
52023;SDS011;38038;45.922;13.604;2023-02-20T08:20:41;21.90;;;20.20;;
52023;SDS011;38038;45.922;13.604;2023-02-20T08:23:17;21.57;;;19.73;;
52023;SDS011;38038;45.922;13.604;2023-02-20T08:25:47;22.83;;;21.03;;
52023;SDS011;38038;45.922;13.604;2023-02-20T08:28:13;22.87;;;20.97;;
52023;SDS011;38038;45.922;13.604;2023-02-20T08:30:39;21.57;;;19.77;;
52023;SDS011;38038;45.922;13.604;2023-02-20T08:33:04;21.90;;;20.10;;
52023;SDS011;38038;45.922;13.604;2023-02-20T08:35:33;23.73;;;21.83;;
52023;SDS011;38038;45.922;13.604;2023-02-20T08:38:00;23.27;;;20.90;;
52023;SDS011;38038;45.922;13.604;2023-02-20T08:40:27;23.77;;;21.77;;
52023;SDS011;38038;45.922;13.604;2023-02-20T08:42:53;23.90;;;21.80;;
52023;SDS011;38038;45.922;13.604;2023-02-20T08:45:18;23.57;;;21.67;;
52023;SDS011;38038;45.922;13.604;2023-02-20T08:47:44;25.47;;;23.23;;
52023;SDS011;38038;45.922;13.604;2023-02-20T08:50:10;23.80;;;21.90;;
52023;SDS011;38038;45.922;13.604;2023-02-20T08:52:35;22.93;;;20.90;;
52023;SDS011;38038;45.922;13.604;2023-02-20T08:55:01;22.90;;;21.00;;
52023;SDS011;38038;45.922;13.604;2023-02-20T08:57:27;21.87;;;20.20;;
52023;SDS011;38038;45.922;13.604;2023-02-20T08:59:52;22.13;;;20.23;;
52023;SDS011;38038;45.922;13.604;2023-02-20T09:02:22;22.73;;;20.60;;
52023;SDS011;38038;45.922;13.604;2023-02-20T09:04:50;21.47;;;19.57;;
52023;SDS011;38038;45.922;13.604;2023-02-20T09:07:15;21.20;;;19.27;;
52023;SDS011;38038;45.922;13.604;2023-02-20T09:09:41;21.80;;;19.80;;
52023;SDS011;38038;45.922;13.604;2023-02-20T09:12:07;20.57;;;18.33;;
52023;SDS011;38038;45.922;13.604;2023-02-20T09:14:33;19.83;;;18.20;;
52023;SDS011;38038;45.922;13.604;2023-02-20T09:16:59;25.13;;;18.63;;
52023;SDS011;38038;45.922;13.604;2023-02-20T09:19:25;20.20;;;18.60;;
52023;SDS011;38038;45.922;13.604;2023-02-20T09:21:51;20.53;;;18.93;;
52023;SDS011;38038;45.922;13.604;2023-02-20T09:24:16;20.27;;;18.20;;
52023;SDS011;38038;45.922;13.604;2023-02-20T09:26:42;21.13;;;19.50;;
52023;SDS011;38038;45.922;13.604;2023-02-20T09:29:08;20.90;;;19.27;;
52023;SDS011;38038;45.922;13.604;2023-02-20T09:31:33;20.70;;;18.90;;
52023;SDS011;38038;45.922;13.604;2023-02-20T09:33:59;20.80;;;18.83;;
52023;SDS011;38038;45.922;13.604;2023-02-20T09:36:25;18.70;;;17.20;;
52023;SDS011;38038;45.922;13.604;2023-02-20T09:38:51;19.60;;;18.00;;
52023;SDS011;38038;45.922;13.604;2023-02-20T09:41:25;19.43;;;17.87;;
52023;SDS011;38038;45.922;13.604;2023-02-20T09:46:51;18.17;;;16.73;;
52023;SDS011;38038;45.922;13.604;2023-02-20T09:49:21;20.03;;;17.97;;
52023;SDS011;38038;45.922;13.604;2023-02-20T09:51:57;19.00;;;17.30;;
52023;SDS011;38038;45.922;13.604;2023-02-20T09:54:33;17.47;;;16.07;;
52023;SDS011;38038;45.922;13.604;2023-02-20T09:57:05;18.30;;;16.67;;
52023;SDS011;38038;45.922;13.604;2023-02-20T09:59:37;18.37;;;16.67;;
52023;SDS011;38038;45.922;13.604;2023-02-20T10:02:19;17.70;;;16.40;;
52023;SDS011;38038;45.922;13.604;2023-02-20T10:04:56;17.97;;;16.67;;
52023;SDS011;38038;45.922;13.604;2023-02-20T10:09:57;18.23;;;16.93;;
52023;SDS011;38038;45.922;13.604;2023-02-20T10:15:15;19.13;;;17.60;;
52023;SDS011;38038;45.922;13.604;2023-02-20T10:21:00;15.97;;;14.73;;
52023;SDS011;38038;45.922;13.604;2023-02-20T10:28:46;16.37;;;14.83;;
52023;SDS011;38038;45.922;13.604;2023-02-20T10:34:08;16.83;;;15.53;;
52023;SDS011;38038;45.922;13.604;2023-02-20T10:36:49;17.30;;;15.90;;
52023;SDS011;38038;45.922;13.604;2023-02-20T10:39:19;16.90;;;15.60;;
52023;SDS011;38038;45.922;13.604;2023-02-20T10:47:29;17.40;;;16.10;;
52023;SDS011;38038;45.922;13.604;2023-02-20T10:50:14;16.27;;;15.03;;
52023;SDS011;38038;45.922;13.604;2023-02-20T10:52:44;16.90;;;15.70;;
52023;SDS011;38038;45.922;13.604;2023-02-20T10:55:34;15.52;;;14.32;;
52023;SDS011;38038;45.922;13.604;2023-02-20T10:58:17;16.07;;;14.87;;
52023;SDS011;38038;45.922;13.604;2023-02-20T11:00:53;15.93;;;14.53;;
52023;SDS011;38038;45.922;13.604;2023-02-20T11:03:29;14.70;;;13.60;;
52023;SDS011;38038;45.922;13.604;2023-02-20T11:06:05;14.82;;;13.68;;
52023;SDS011;38038;45.922;13.604;2023-02-20T11:08:33;14.93;;;13.93;;
52023;SDS011;38038;45.922;13.604;2023-02-20T11:11:05;15.23;;;14.20;;
52023;SDS011;38038;45.922;13.604;2023-02-20T11:13:48;15.13;;;14.10;;
52023;SDS011;38038;45.922;13.604;2023-02-20T11:16:25;16.58;;;15.38;;
52023;SDS011;38038;45.922;13.604;2023-02-20T11:19:09;16.83;;;15.30;;
52023;SDS011;38038;45.922;13.604;2023-02-20T11:21:42;16.88;;;15.40;;
52023;SDS011;38038;45.922;13.604;2023-02-20T11:27:02;16.23;;;15.15;;
52023;SDS011;38038;45.922;13.604;2023-02-20T11:29:53;15.32;;;14.23;;
52023;SDS011;38038;45.922;13.604;2023-02-20T11:32:30;15.57;;;14.43;;
52023;SDS011;38038;45.922;13.604;2023-02-20T11:35:05;15.82;;;14.63;;
52023;SDS011;38038;45.922;13.604;2023-02-20T11:37:46;16.95;;;15.73;;
52023;SDS011;38038;45.922;13.604;2023-02-20T11:40:35;15.65;;;14.55;;
52023;SDS011;38038;45.922;13.604;2023-02-20T11:45:38;15.50;;;14.40;;
52023;SDS011;38038;45.922;13.604;2023-02-20T11:48:06;14.43;;;13.43;;
52023;SDS011;38038;45.922;13.604;2023-02-20T11:50:43;16.70;;;15.38;;
52023;SDS011;38038;45.922;13.604;2023-02-20T11:53:26;15.82;;;14.63;;
52023;SDS011;38038;45.922;13.604;2023-02-20T11:56:12;15.88;;;14.77;;
52023;SDS011;38038;45.922;13.604;2023-02-20T11:58:40;16.33;;;15.23;;
52023;SDS011;38038;45.922;13.604;2023-02-20T12:01:07;15.05;;;13.85;;
52023;SDS011;38038;45.922;13.604;2023-02-20T12:03:57;15.88;;;14.77;;
52023;SDS011;38038;45.922;13.604;2023-02-20T12:08:58;15.20;;;14.10;;
52023;SDS011;38038;45.922;13.604;2023-02-20T12:11:26;15.82;;;14.73;;
52023;SDS011;38038;45.922;13.604;2023-02-20T12:13:53;15.10;;;14.00;;
52023;SDS011;38038;45.922;13.604;2023-02-20T12:35:34;17.02;;;15.73;;
52023;SDS011;38038;45.922;13.604;2023-02-20T12:41:03;18.00;;;16.65;;
52023;SDS011;38038;45.922;13.604;2023-02-20T12:49:25;17.17;;;15.98;;
52023;SDS011;38038;45.922;13.604;2023-02-20T12:57:54;15.95;;;14.80;;
52023;SDS011;38038;45.922;13.604;2023-02-20T13:00:46;16.37;;;15.17;;
52023;SDS011;38038;45.922;13.604;2023-02-20T13:03:34;16.52;;;15.25;;
52023;SDS011;38038;45.922;13.604;2023-02-20T13:09:05;15.43;;;14.33;;
52023;SDS011;38038;45.922;13.604;2023-02-20T13:11:55;16.83;;;15.55;;
52023;SDS011;38038;45.922;13.604;2023-02-20T13:19:40;18.40;;;17.20;;
52023;SDS011;38038;45.922;13.604;2023-02-20T13:22:12;17.17;;;16.00;;
52023;SDS011;38038;45.922;13.604;2023-02-20T13:24:40;16.27;;;15.15;;
52023;SDS011;38038;45.922;13.604;2023-02-20T13:27:06;16.23;;;15.02;;
52023;SDS011;38038;45.922;13.604;2023-02-20T13:29:37;16.25;;;15.05;;
52023;SDS011;38038;45.922;13.604;2023-02-20T13:34:48;15.07;;;14.07;;
52023;SDS011;38038;45.922;13.604;2023-02-20T13:39:57;14.60;;;13.60;;
52023;SDS011;38038;45.922;13.604;2023-02-20T13:45:37;15.35;;;14.25;;
52023;SDS011;38038;45.922;13.604;2023-02-20T13:57:08;18.37;;;16.80;;
52023;SDS011;38038;45.922;13.604;2023-02-20T13:59:41;15.50;;;14.50;;
52023;SDS011;38038;45.922;13.604;2023-02-20T14:02:40;13.68;;;12.85;;
52023;SDS011;38038;45.922;13.604;2023-02-20T14:05:05;12.90;;;12.05;;
52023;SDS011;38038;45.922;13.604;2023-02-20T14:07:43;14.80;;;13.80;;
52023;SDS011;38038;45.922;13.604;2023-02-20T14:10:17;13.40;;;12.50;;
52023;SDS011;38038;45.922;13.604;2023-02-20T14:15:32;13.02;;;12.23;;
52023;SDS011;38038;45.922;13.604;2023-02-20T14:18:13;13.88;;;12.77;;
52023;SDS011;38038;45.922;13.604;2023-02-20T14:20:44;12.23;;;11.52;;
52023;SDS011;38038;45.922;13.604;2023-02-20T14:23:17;13.05;;;12.25;;
52023;SDS011;38038;45.922;13.604;2023-02-20T14:25:52;13.13;;;12.32;;
52023;SDS011;38038;45.922;13.604;2023-02-20T14:28:18;13.00;;;12.23;;
52023;SDS011;38038;45.922;13.604;2023-02-20T14:30:44;12.68;;;11.98;;
52023;SDS011;38038;45.922;13.604;2023-02-20T14:33:20;14.20;;;13.27;;
52023;SDS011;38038;45.922;13.604;2023-02-20T14:35:54;13.85;;;12.85;;
52023;SDS011;38038;45.922;13.604;2023-02-20T14:41:16;15.38;;;14.13;;
52023;SDS011;38038;45.922;13.604;2023-02-20T14:43:44;15.02;;;13.90;;
52023;SDS011;38038;45.922;13.604;2023-02-20T14:46:29;16.75;;;15.45;;
52023;SDS011;38038;45.922;13.604;2023-02-20T14:49:04;15.95;;;14.85;;
52023;SDS011;38038;45.922;13.604;2023-02-20T14:51:31;16.23;;;15.10;;
52023;SDS011;38038;45.922;13.604;2023-02-20T14:53:58;15.75;;;14.63;;
52023;SDS011;38038;45.922;13.604;2023-02-20T14:56:45;15.75;;;14.48;;
52023;SDS011;38038;45.922;13.604;2023-02-20T15:02:37;16.77;;;15.63;;
52023;SDS011;38038;45.922;13.604;2023-02-20T15:04:49;16.07;;;14.70;;
52023;SDS011;38038;45.922;13.604;2023-02-20T15:07:20;14.40;;;13.30;;
52023;SDS011;38038;45.922;13.604;2023-02-20T15:09:48;16.23;;;15.00;;
52023;SDS011;38038;45.922;13.604;2023-02-20T15:12:22;16.52;;;15.20;;
52023;SDS011;38038;45.922;13.604;2023-02-20T15:15:12;16.42;;;15.18;;
52023;SDS011;38038;45.922;13.604;2023-02-20T15:17:40;16.25;;;14.98;;
52023;SDS011;38038;45.922;13.604;2023-02-20T15:20:17;17.58;;;15.98;;
52023;SDS011;38038;45.922;13.604;2023-02-20T15:25:40;18.65;;;17.13;;
52023;SDS011;38038;45.922;13.604;2023-02-20T15:28:12;17.30;;;15.63;;
52023;SDS011;38038;45.922;13.604;2023-02-20T15:31:23;17.95;;;16.55;;
52023;SDS011;38038;45.922;13.604;2023-02-20T15:36:05;19.40;;;17.85;;
52023;SDS011;38038;45.922;13.604;2023-02-20T15:38:35;18.70;;;17.00;;
52023;SDS011;38038;45.922;13.604;2023-02-20T15:41:02;18.57;;;17.17;;
52023;SDS011;38038;45.922;13.604;2023-02-20T15:43:29;18.83;;;17.27;;
52023;SDS011;38038;45.922;13.604;2023-02-20T15:45:55;18.70;;;17.20;;
52023;SDS011;38038;45.922;13.604;2023-02-20T15:48:21;18.40;;;16.47;;
52023;SDS011;38038;45.922;13.604;2023-02-20T15:50:48;17.73;;;16.27;;
52023;SDS011;38038;45.922;13.604;2023-02-20T15:53:16;18.20;;;16.57;;
52023;SDS011;38038;45.922;13.604;2023-02-20T15:55:45;18.47;;;16.93;;
52023;SDS011;38038;45.922;13.604;2023-02-20T15:58:21;17.47;;;16.13;;
52023;SDS011;38038;45.922;13.604;2023-02-20T16:00:49;18.10;;;16.70;;
52023;SDS011;38038;45.922;13.604;2023-02-20T16:03:15;18.53;;;16.93;;
52023;SDS011;38038;45.922;13.604;2023-02-20T16:05:41;18.00;;;16.63;;
52023;SDS011;38038;45.922;13.604;2023-02-20T16:08:07;18.33;;;16.73;;
52023;SDS011;38038;45.922;13.604;2023-02-20T16:10:33;20.53;;;18.87;;
52023;SDS011;38038;45.922;13.604;2023-02-20T16:12:58;20.27;;;18.43;;
52023;SDS011;38038;45.922;13.604;2023-02-20T16:15:25;19.97;;;17.93;;
52023;SDS011;38038;45.922;13.604;2023-02-20T16:17:51;19.20;;;17.30;;
52023;SDS011;38038;45.922;13.604;2023-02-20T16:20:21;20.30;;;18.60;;
52023;SDS011;38038;45.922;13.604;2023-02-20T16:22:48;21.60;;;19.63;;
52023;SDS011;38038;45.922;13.604;2023-02-20T16:25:16;22.23;;;19.87;;
52023;SDS011;38038;45.922;13.604;2023-02-20T16:27:43;21.87;;;19.87;;
52023;SDS011;38038;45.922;13.604;2023-02-20T16:30:17;20.00;;;18.40;;
52023;SDS011;38038;45.922;13.604;2023-02-20T16:32:53;21.65;;;19.77;;
52023;SDS011;38038;45.922;13.604;2023-02-20T16:35:19;22.10;;;20.33;;
52023;SDS011;38038;45.922;13.604;2023-02-20T16:37:45;22.20;;;20.20;;
52023;SDS011;38038;45.922;13.604;2023-02-20T16:40:11;21.17;;;19.13;;
52023;SDS011;38038;45.922;13.604;2023-02-20T16:42:38;22.43;;;20.43;;
52023;SDS011;38038;45.922;13.604;2023-02-20T16:45:09;21.90;;;20.30;;